• Join FlightAware (Why Join?)
  • Login
  • US Flag 
01:13PM EDT


 

Airport Tracker/Info


-or-


 

Live Flight TrackerFlight Track Log ✈ ASQ45T ✈ 05-Aug-2013 ✈ KTUL - KORD

Flight Track Log - Related Links

Times and Time Zones

All times are in EDT time to prevent confusion due to time zone crossing. See the ASQ45T flight status page for this flight to view local times or setup timezone preferences in your user account.

Time Position Orientation Groundspeed Altitude Reporting Facility
EDT Latitude Longitude Course Direction KTS MPH feet Rate Location/Type
01:58PM 36.1200 -95.8694 96° East 229 264 3,800  Level Kansas City Center
01:59PM 36.1125 -95.7811 96° East 299 344 6,100 2,220 Climbing Kansas City Center
02:00PM 36.1636 -95.6917 55° Northeast 303 349 8,800 2,220 Climbing Kansas City Center
02:01PM 36.1978 -95.6261 57° Northeast 296 341 10,300 1,380 Climbing Kansas City Center
02:02PM 36.2519 -95.5286 55° Northeast 339 390 11,400 1,440 Climbing Kansas City Center
02:03PM 36.3189 -95.4053 56° Northeast 364 419 13,300 1,560 Climbing Kansas City Center
02:04PM 36.3775 -95.2981 56° Northeast 383 441 14,700 1,440 Climbing Kansas City Center
02:05PM 36.4347 -95.1936 56° Northeast 389 448 16,300 1,440 Climbing Kansas City Center
02:06PM 36.4983 -95.0769 56° Northeast 390 449 17,700 1,500 Climbing Kansas City Center
02:07PM 36.5592 -94.9622 57° Northeast 395 455 19,400 1,560 Climbing Kansas City Center
02:08PM 36.6314 -94.8294 56° Northeast 389 448 21,000 1,500 Climbing Kansas City Center
02:09PM 36.6917 -94.7161 56° Northeast 390 449 22,600 1,440 Climbing Kansas City Center
02:10PM 36.7528 -94.6036 56° Northeast 391 450 24,000 1,260 Climbing Kansas City Center
02:11PM 36.8119 -94.4908 57° Northeast 390 449 25,300 1,200 Climbing Kansas City Center
02:12PM 36.8728 -94.3769 56° Northeast 391 450 26,600 1,440 Climbing Kansas City Center
02:13PM 36.9356 -94.2672 54° Northeast 390 449 28,300 1,620 Climbing Kansas City Center
02:14PM 37.0311 -94.1639 41° Northeast 378 435 30,000 1,260 Climbing Kansas City Center
02:15PM 37.1111 -94.0772 41° Northeast 380 437 31,000 480 Climbing Kansas City Center
02:16PM 37.1969 -93.9803 42° Northeast 401 461 31,000  Level Kansas City Center
02:17PM 37.2894 -93.8794 41° Northeast 433 498 31,000 480 Level Kansas City Center
02:18PM 37.3833 -93.7761 41° Northeast 445 512 32,100 1,080 Climbing Kansas City Center
02:19PM 37.4747 -93.6733 42° Northeast 442 509 33,300 900 Climbing Kansas City Center
02:21PM 37.5756 -93.5566 42° Northeast  Level FlightAware Approximate
02:21PM 37.6575 -93.4714 42° Northeast 436 502 35,000  Level Kansas City Center
02:22PM 37.7717 -93.3433 42° Northeast 451 519 35,000  Level Kansas City Center
02:23PM 37.8708 -93.2303 42° Northeast 469 540 35,000  Level Kansas City Center
02:24PM 37.9714 -93.1172 42° Northeast 476 548 35,000  Level Kansas City Center
02:25PM 38.0717 -93.0042 42° Northeast 478 550 35,000  Level Kansas City Center
02:26PM 38.1717 -92.8908 42° Northeast 478 550 35,000  Level Kansas City Center
02:28PM 38.2700 -92.7789 42° Northeast 474 545 35,000  Level Kansas City Center
02:29PM 38.3703 -92.6622 42° Northeast 478 550 35,000  Level Kansas City Center
02:30PM 38.4703 -92.5481 42° Northeast 478 550 35,000  Level Kansas City Center
02:31PM 38.5894 -92.4103 42° Northeast 478 550 35,000  Level Kansas City Center
02:32PM 38.6875 -92.2933 43° Northeast 479 551 35,000  Level Kansas City Center
02:33PM 38.7864 -92.1772 42° Northeast 479 551 35,000  Level Kansas City Center
02:34PM 38.8856 -92.0614 42° Northeast 478 550 35,000  Level Kansas City Center
02:35PM 38.9847 -91.9450 42° Northeast 481 554 35,000  Level Kansas City Center
02:36PM 39.0831 -91.8286 43° Northeast 480 552 35,000  Level Kansas City Center
02:37PM 39.1822 -91.7122 42° Northeast 480 552 35,000  Level Kansas City Center
02:38PM 39.2894 -91.5858 42° Northeast 484 557 35,000  Level Kansas City Center
02:39PM 39.3864 -91.4697 43° Northeast 480 552 35,000 -60 Level Kansas City Center
02:40PM 39.4789 -91.3586 43° Northeast 466 536 34,900 -900 Descending Kansas City Center
02:41PM 39.5942 -91.2203 43° Northeast 466 536 33,200 -1,380 Descending Kansas City Center
02:42PM 39.6889 -91.1044 43° Northeast 466 536 32,100 -600 Descending Kansas City Center
02:43PM 39.7792 -91.0083 39° Northeast 467 537 32,000 -540 Descending Kansas City Center
02:44PM 39.8922 -90.8947 38° Northeast 467 537 31,000 -480 Descending Kansas City Center
02:45PM 39.9969 -90.7903 37° Northeast 470 541 31,000  Level Kansas City Center
02:46PM 40.1008 -90.6833 38° Northeast 474 545 31,000  Level Kansas City Center
02:47PM 40.2050 -90.5786 38° Northeast 474 545 31,000  Level Kansas City Center
02:48PM 40.3308 -90.4508 38° Northeast 474 545 31,000 -60 Level Kansas City Center
02:49PM 40.4144 -90.3658 38° Northeast 475 547 30,900 -600 Descending Chicago Center
02:50PM 40.5161 -90.2606 38° Northeast 467 537 30,000 -1,020 Descending Chicago Center
02:51PM 40.6311 -90.1431 38° Northeast 472 543 28,900 -1,020 Descending Chicago Center
02:52PM 40.7383 -90.0333 38° Northeast 487 560 27,900 -960 Descending Chicago Center
02:53PM 40.8475 -89.9208 38° Northeast 497 572 27,000 -960 Descending Chicago Center
02:54PM 40.9442 -89.8161 39° Northeast 453 521 26,000 -1,080 Descending Chicago Center
02:55PM 41.0378 -89.7169 39° Northeast 440 506 24,800 -1,080 Descending Chicago Center
02:56PM 41.1331 -89.6172 38° Northeast 438 504 23,800 -1,620 Descending Chicago Center
02:57PM 41.2128 -89.4619 56° Northeast 429 494 21,500 -2,280 Descending Chicago Center
02:58PM 41.2675 -89.3253 62° Northeast 424 488 19,200 -2,220 Descending Chicago Center
02:59PM 41.3178 -89.1964 63° Northeast 400 460 17,000 -2,040 Descending Chicago Center
03:00PM 41.3653 -89.0800 61° Northeast 368 423 15,000 -1,980 Descending Chicago Center
03:01PM 41.4092 -88.9667 63° Northeast 349 402 12,900 -1,860 Descending Chicago Center
03:02PM 41.4603 -88.8378 62° Northeast 326 375 11,200 -900 Descending Chicago Center
03:04PM 41.5003 -88.7381 62° Northeast 308 354 11,100 -120 Descending Chicago Center
03:05PM 41.5397 -88.6372 62° Northeast 307 353 11,000  Descending Chicago Center
03:06PM 41.5797 -88.5367 62° Northeast 305 351 11,100 -60 Climbing Chicago Center
03:07PM 41.6239 -88.4400 59° Northeast 303 349 10,900 -1,020 Descending Chicago Center
03:08PM 41.6764 -88.3561 50° Northeast 293 337 9,100 -1,860 Descending Chicago Center
03:09PM 41.7683 -88.3458 North 272 313 7,100 -1,020 Descending Chicago Center
03:10PM 41.8383 -88.3406 North 253 291 7,000 -60 Descending Chicago Center
03:11PM 41.8989 -88.3336 North 221 254 7,000 -480 Level Chicago Center
03:12PM 41.9531 -88.3269 North 200 230 6,000 -960 Descending Chicago Center
03:13PM 41.9828 -88.2833 47° Northeast 215 247 5,100 -660 Descending Chicago Center
03:14PM 41.9661 -88.2008 105° East 195 224 4,700 -780 Descending Chicago Center
03:15PM 41.9681 -88.1258 88° East 198 228 3,600 -1,140 Descending Chicago Center
03:16PM 41.9667 -88.0500 91° East 192 221 2,400 -1,020 Descending Chicago TRACON
03:17PM 41.9667 -87.9667 90° East 168 193 1,400 -960 Descending Chicago TRACON
03:20PM 41.9667 -87.9000 82° East  Level FlightAware Approximate